sensor_id;sensor_type;location;lat;lon;timestamp;pressure;altitude;pressure_sealevel;temperature;humidity
34103;BME280;20381;54.498;18.206;2022-11-24T00:01:04;98993.29;;;-1.15;98.39
34103;BME280;20381;54.498;18.206;2022-11-24T00:03:34;98991.13;;;-1.14;98.35
34103;BME280;20381;54.498;18.206;2022-11-24T00:06:06;98994.58;;;-1.16;98.31
34103;BME280;20381;54.498;18.206;2022-11-24T00:08:35;98989.05;;;-1.19;98.36
34103;BME280;20381;54.498;18.206;2022-11-24T00:11:09;98989.05;;;-1.19;98.49
34103;BME280;20381;54.498;18.206;2022-11-24T00:13:37;98990.33;;;-1.19;98.52
34103;BME280;20381;54.498;18.206;2022-11-24T00:18:40;98987.37;;;-1.20;98.53
34103;BME280;20381;54.498;18.206;2022-11-24T00:21:09;98986.13;;;-1.23;98.68
34103;BME280;20381;54.498;18.206;2022-11-24T00:23:36;98993.33;;;-1.21;98.67
34103;BME280;20381;54.498;18.206;2022-11-24T00:26:06;98995.45;;;-1.19;98.68
34103;BME280;20381;54.498;18.206;2022-11-24T00:28:35;98995.85;;;-1.15;98.68
34103;BME280;20381;54.498;18.206;2022-11-24T00:31:05;98992.38;;;-1.10;98.78
34103;BME280;20381;54.498;18.206;2022-11-24T00:33:35;98991.05;;;-1.07;98.68
34103;BME280;20381;54.498;18.206;2022-11-24T00:36:02;99001.73;;;-1.06;98.62
34103;BME280;20381;54.498;18.206;2022-11-24T00:38:29;98997.38;;;-1.01;98.53
34103;BME280;20381;54.498;18.206;2022-11-24T00:40:56;99011.02;;;-0.98;98.38
34103;BME280;20381;54.498;18.206;2022-11-24T00:43:23;99010.15;;;-0.98;98.24
34103;BME280;20381;54.498;18.206;2022-11-24T00:45:50;99008.47;;;-0.98;98.23
34103;BME280;20381;54.498;18.206;2022-11-24T00:48:17;99008.88;;;-0.98;98.17
34103;BME280;20381;54.498;18.206;2022-11-24T00:50:44;99002.46;;;-0.97;98.16
34103;BME280;20381;54.498;18.206;2022-11-24T00:53:26;99003.73;;;-0.95;98.14
34103;BME280;20381;54.498;18.206;2022-11-24T00:55:54;99012.70;;;-0.97;98.10
34103;BME280;20381;54.498;18.206;2022-11-24T00:58:22;99016.03;;;-0.88;97.72
34103;BME280;20381;54.498;18.206;2022-11-24T01:00:50;99012.31;;;-0.99;97.68
34103;BME280;20381;54.498;18.206;2022-11-24T01:03:18;99020.03;;;-1.02;97.94
34103;BME280;20381;54.498;18.206;2022-11-24T01:05:46;99019.11;;;-0.95;97.75
34103;BME280;20381;54.498;18.206;2022-11-24T01:08:13;99028.97;;;-0.99;97.73
34103;BME280;20381;54.498;18.206;2022-11-24T01:10:40;99026.77;;;-0.94;97.72
34103;BME280;20381;54.498;18.206;2022-11-24T01:13:07;99021.20;;;-0.92;97.79
34103;BME280;20381;54.498;18.206;2022-11-24T01:15:35;99013.91;;;-0.89;97.76
34103;BME280;20381;54.498;18.206;2022-11-24T01:18:02;99009.94;;;-0.81;97.77
34103;BME280;20381;54.498;18.206;2022-11-24T01:20:30;99012.50;;;-0.80;97.49
34103;BME280;20381;54.498;18.206;2022-11-24T01:22:58;99017.75;;;-0.89;97.63
34103;BME280;20381;54.498;18.206;2022-11-24T01:25:25;99022.48;;;-0.92;97.83
34103;BME280;20381;54.498;18.206;2022-11-24T01:27:51;99020.35;;;-0.92;97.84
34103;BME280;20381;54.498;18.206;2022-11-24T01:30:18;99017.70;;;-0.86;97.70
34103;BME280;20381;54.498;18.206;2022-11-24T01:32:47;99023.80;;;-0.95;97.76
34103;BME280;20381;54.498;18.206;2022-11-24T01:35:14;99028.92;;;-0.96;97.78
34103;BME280;20381;54.498;18.206;2022-11-24T01:37:40;99028.08;;;-0.95;97.68
34103;BME280;20381;54.498;18.206;2022-11-24T01:40:08;99025.05;;;-0.93;97.65
34103;BME280;20381;54.498;18.206;2022-11-24T01:47:40;99024.16;;;-0.89;97.63
34103;BME280;20381;54.498;18.206;2022-11-24T01:50:10;99024.32;;;-1.04;97.79
34103;BME280;20381;54.498;18.206;2022-11-24T01:52:45;99022.23;;;-1.06;97.98
34103;BME280;20381;54.498;18.206;2022-11-24T01:55:16;99026.52;;;-1.08;98.08
34103;BME280;20381;54.498;18.206;2022-11-24T01:57:52;99023.95;;;-1.08;98.00
34103;BME280;20381;54.498;18.206;2022-11-24T02:00:21;99026.44;;;-1.02;97.85
34103;BME280;20381;54.498;18.206;2022-11-24T02:02:48;99023.05;;;-1.04;97.66
34103;BME280;20381;54.498;18.206;2022-11-24T02:05:21;99021.39;;;-1.08;97.59
34103;BME280;20381;54.498;18.206;2022-11-24T02:07:52;99016.39;;;-1.19;97.89
34103;BME280;20381;54.498;18.206;2022-11-24T02:10:20;99023.27;;;-1.23;97.99
34103;BME280;20381;54.498;18.206;2022-11-24T02:12:50;99023.30;;;-1.26;98.11
34103;BME280;20381;54.498;18.206;2022-11-24T02:15:19;99024.58;;;-1.26;98.22
34103;BME280;20381;54.498;18.206;2022-11-24T02:17:46;99028.39;;;-1.23;98.28
34103;BME280;20381;54.498;18.206;2022-11-24T02:20:14;99027.11;;;-1.23;98.25
34103;BME280;20381;54.498;18.206;2022-11-24T02:28:16;99021.55;;;-1.24;97.97
34103;BME280;20381;54.498;18.206;2022-11-24T02:30:45;99020.73;;;-1.26;97.94
34103;BME280;20381;54.498;18.206;2022-11-24T02:33:13;99018.18;;;-1.29;98.04
34103;BME280;20381;54.498;18.206;2022-11-24T02:35:40;99021.25;;;-1.34;98.21
34103;BME280;20381;54.498;18.206;2022-11-24T02:38:10;99020.38;;;-1.35;98.36
34103;BME280;20381;54.498;18.206;2022-11-24T02:40:40;99015.69;;;-1.35;98.43
34103;BME280;20381;54.498;18.206;2022-11-24T02:43:12;99013.13;;;-1.35;98.38
34103;BME280;20381;54.498;18.206;2022-11-24T02:46:01;99016.91;;;-1.29;98.19
34103;BME280;20381;54.498;18.206;2022-11-24T02:48:28;99019.46;;;-1.29;98.29
34103;BME280;20381;54.498;18.206;2022-11-24T02:50:55;99030.11;;;-1.25;98.50
34103;BME280;20381;54.498;18.206;2022-11-24T02:53:22;99026.59;;;-1.18;98.73
34103;BME280;20381;54.498;18.206;2022-11-24T02:55:49;99029.97;;;-1.13;98.62
34103;BME280;20381;54.498;18.206;2022-11-24T02:58:16;99026.48;;;-1.05;98.53
34103;BME280;20381;54.498;18.206;2022-11-24T03:00:43;99028.09;;;-0.97;98.24
34103;BME280;20381;54.498;18.206;2022-11-24T03:03:09;99027.28;;;-1.00;98.15
34103;BME280;20381;54.498;18.206;2022-11-24T03:05:36;99032.81;;;-0.99;98.32
34103;BME280;20381;54.498;18.206;2022-11-24T03:08:03;99032.37;;;-0.97;98.32
34103;BME280;20381;54.498;18.206;2022-11-24T03:10:30;99031.48;;;-0.96;98.31
34103;BME280;20381;54.498;18.206;2022-11-24T03:12:57;99033.61;;;-0.94;98.38
34103;BME280;20381;54.498;18.206;2022-11-24T03:15:23;99040.82;;;-0.91;98.37
34103;BME280;20381;54.498;18.206;2022-11-24T03:17:53;99041.22;;;-0.88;98.43
34103;BME280;20381;54.498;18.206;2022-11-24T03:20:22;99048.02;;;-0.85;98.36
34103;BME280;20381;54.498;18.206;2022-11-24T03:23:10;99042.02;;;-0.83;98.38
34103;BME280;20381;54.498;18.206;2022-11-24T03:25:36;99044.10;;;-0.79;98.36
34103;BME280;20381;54.498;18.206;2022-11-24T03:28:03;99049.23;;;-0.79;98.26
34103;BME280;20381;54.498;18.206;2022-11-24T03:30:30;99046.23;;;-0.79;98.25
34103;BME280;20381;54.498;18.206;2022-11-24T03:32:57;99050.07;;;-0.79;98.24
34103;BME280;20381;54.498;18.206;2022-11-24T03:35:24;99044.95;;;-0.79;98.20
34103;BME280;20381;54.498;18.206;2022-11-24T03:37:51;99053.52;;;-0.80;98.23
34103;BME280;20381;54.498;18.206;2022-11-24T03:40:17;99050.95;;;-0.78;98.28
34103;BME280;20381;54.498;18.206;2022-11-24T03:42:44;99055.59;;;-0.76;98.33
34103;BME280;20381;54.498;18.206;2022-11-24T03:45:11;99050.87;;;-0.74;98.38
34103;BME280;20381;54.498;18.206;2022-11-24T03:47:38;99048.27;;;-0.71;98.37
34103;BME280;20381;54.498;18.206;2022-11-24T03:50:05;99046.13;;;-0.70;98.34
34103;BME280;20381;54.498;18.206;2022-11-24T03:52:32;99048.22;;;-0.68;98.34
34103;BME280;20381;54.498;18.206;2022-11-24T03:54:58;99049.89;;;-0.63;98.43
34103;BME280;20381;54.498;18.206;2022-11-24T03:57:25;99048.98;;;-0.59;98.40
34103;BME280;20381;54.498;18.206;2022-11-24T03:59:52;99048.98;;;-0.59;98.33
34103;BME280;20381;54.498;18.206;2022-11-24T04:02:19;99049.38;;;-0.57;98.33
34103;BME280;20381;54.498;18.206;2022-11-24T04:04:49;99042.52;;;-0.56;98.22
34103;BME280;20381;54.498;18.206;2022-11-24T04:07:20;99041.23;;;-0.53;98.44
34103;BME280;20381;54.498;18.206;2022-11-24T04:09:47;99042.81;;;-0.44;98.33
34103;BME280;20381;54.498;18.206;2022-11-24T04:12:14;99051.75;;;-0.43;98.43
34103;BME280;20381;54.498;18.206;2022-11-24T04:14:59;99048.79;;;-0.44;98.39
34103;BME280;20381;54.498;18.206;2022-11-24T04:20:15;99049.64;;;-0.45;98.80
34103;BME280;20381;54.498;18.206;2022-11-24T04:22:42;99057.33;;;-0.45;98.70
34103;BME280;20381;54.498;18.206;2022-11-24T04:25:10;99054.81;;;-0.48;98.62
34103;BME280;20381;54.498;18.206;2022-11-24T04:27:37;99058.26;;;-0.49;98.70
34103;BME280;20381;54.498;18.206;2022-11-24T04:30:05;99063.73;;;-0.42;98.73
34103;BME280;20381;54.498;18.206;2022-11-24T04:32:33;99069.75;;;-0.46;98.58
34103;BME280;20381;54.498;18.206;2022-11-24T04:35:06;99077.00;;;-0.44;98.77
34103;BME280;20381;54.498;18.206;2022-11-24T04:37:30;99080.41;;;-0.45;98.66
34103;BME280;20381;54.498;18.206;2022-11-24T04:40:06;99082.17;;;-0.47;98.54
34103;BME280;20381;54.498;18.206;2022-11-24T04:42:33;99082.22;;;-0.50;98.55
34103;BME280;20381;54.498;18.206;2022-11-24T04:45:00;99066.13;;;-0.64;98.35
34103;BME280;20381;54.498;18.206;2022-11-24T04:47:27;99066.13;;;-0.64;98.35
34103;BME280;20381;54.498;18.206;2022-11-24T04:49:53;99081.87;;;-0.57;98.47
34103;BME280;20381;54.498;18.206;2022-11-24T04:52:22;99090.05;;;-0.62;98.28
34103;BME280;20381;54.498;18.206;2022-11-24T04:54:50;99093.48;;;-0.65;98.36
34103;BME280;20381;54.498;18.206;2022-11-24T04:57:18;99107.19;;;-0.68;98.44
34103;BME280;20381;54.498;18.206;2022-11-24T04:59:46;99106.34;;;-0.66;98.46
34103;BME280;20381;54.498;18.206;2022-11-24T05:02:14;99114.08;;;-0.70;98.50
34103;BME280;20381;54.498;18.206;2022-11-24T05:04:41;99108.07;;;-0.70;98.52
34103;BME280;20381;54.498;18.206;2022-11-24T05:07:17;99108.55;;;-0.74;98.36
34103;BME280;20381;54.498;18.206;2022-11-24T05:09:41;99106.50;;;-0.82;98.25
34103;BME280;20381;54.498;18.206;2022-11-24T05:12:27;99108.26;;;-0.84;98.42
34103;BME280;20381;54.498;18.206;2022-11-24T05:14:58;99106.54;;;-0.85;98.42
34103;BME280;20381;54.498;18.206;2022-11-24T05:17:32;99108.33;;;-0.93;98.33
34103;BME280;20381;54.498;18.206;2022-11-24T05:20:00;99110.89;;;-0.93;98.56
34103;BME280;20381;54.498;18.206;2022-11-24T05:22:29;99115.14;;;-0.91;98.57
34103;BME280;20381;54.498;18.206;2022-11-24T05:24:57;99117.70;;;-0.89;98.62
34103;BME280;20381;54.498;18.206;2022-11-24T05:27:45;99111.66;;;-0.83;98.80
34103;BME280;20381;54.498;18.206;2022-11-24T05:30:13;99112.47;;;-0.80;98.72
34103;BME280;20381;54.498;18.206;2022-11-24T05:32:39;99110.75;;;-0.78;98.68
34103;BME280;20381;54.498;18.206;2022-11-24T05:35:07;99107.27;;;-0.74;98.69
34103;BME280;20381;54.498;18.206;2022-11-24T05:37:34;99104.66;;;-0.71;98.76
34103;BME280;20381;54.498;18.206;2022-11-24T05:40:02;99101.25;;;-0.70;98.58
34103;BME280;20381;54.498;18.206;2022-11-24T05:42:29;99103.86;;;-0.73;98.40
34103;BME280;20381;54.498;18.206;2022-11-24T05:45:11;99105.58;;;-0.75;98.33
34103;BME280;20381;54.498;18.206;2022-11-24T05:47:40;99103.09;;;-0.81;98.59
34103;BME280;20381;54.498;18.206;2022-11-24T05:50:10;99107.30;;;-0.77;98.62
34103;BME280;20381;54.498;18.206;2022-11-24T05:52:38;99101.77;;;-0.78;98.57
34103;BME280;20381;54.498;18.206;2022-11-24T05:55:06;99099.58;;;-0.74;98.69
34103;BME280;20381;54.498;18.206;2022-11-24T05:57:33;99099.98;;;-0.71;98.68
34103;BME280;20381;54.498;18.206;2022-11-24T06:00:02;99101.70;;;-0.72;98.58
34103;BME280;20381;54.498;18.206;2022-11-24T06:02:29;99111.52;;;-0.70;98.62
34103;BME280;20381;54.498;18.206;2022-11-24T06:04:57;99110.23;;;-0.70;98.59
34103;BME280;20381;54.498;18.206;2022-11-24T06:07:23;99114.08;;;-0.70;98.47
34103;BME280;20381;54.498;18.206;2022-11-24T06:09:50;99115.39;;;-0.73;98.33
34103;BME280;20381;54.498;18.206;2022-11-24T06:12:17;99116.72;;;-0.79;98.26
34103;BME280;20381;54.498;18.206;2022-11-24T06:14:45;99121.03;;;-0.82;98.20
34103;BME280;20381;54.498;18.206;2022-11-24T06:17:15;99115.98;;;-0.90;98.23
34103;BME280;20381;54.498;18.206;2022-11-24T06:19:42;99119.46;;;-0.96;98.32
34103;BME280;20381;54.498;18.206;2022-11-24T06:22:10;99111.81;;;-0.99;98.42
34103;BME280;20381;54.498;18.206;2022-11-24T06:24:37;99112.69;;;-1.01;98.40
34103;BME280;20381;54.498;18.206;2022-11-24T06:27:04;99108.44;;;-1.02;98.37
34103;BME280;20381;54.498;18.206;2022-11-24T06:29:33;99128.09;;;-1.04;98.36
34103;BME280;20381;54.498;18.206;2022-11-24T06:32:00;99129.75;;;-0.99;98.30
34103;BME280;20381;54.498;18.206;2022-11-24T06:34:29;99128.91;;;-0.98;98.05
34103;BME280;20381;54.498;18.206;2022-11-24T06:36:56;99127.15;;;-0.94;98.22
34103;BME280;20381;54.498;18.206;2022-11-24T06:39:22;99129.27;;;-0.94;98.32
34103;BME280;20381;54.498;18.206;2022-11-24T06:41:50;99128.80;;;-0.88;98.39
34103;BME280;20381;54.498;18.206;2022-11-24T06:44:17;99132.17;;;-0.83;98.56
34103;BME280;20381;54.498;18.206;2022-11-24T06:46:44;99137.70;;;-0.81;98.65
34103;BME280;20381;54.498;18.206;2022-11-24T06:49:11;99140.19;;;-0.75;98.69
34103;BME280;20381;54.498;18.206;2022-11-24T06:51:40;99143.89;;;-0.62;98.75
34103;BME280;20381;54.498;18.206;2022-11-24T06:54:09;99151.50;;;-0.53;98.56
34103;BME280;20381;54.498;18.206;2022-11-24T06:56:43;99157.91;;;-0.53;98.39
34103;BME280;20381;54.498;18.206;2022-11-24T06:59:18;99158.79;;;-0.56;98.24
34103;BME280;20381;54.498;18.206;2022-11-24T07:01:46;99160.52;;;-0.59;98.50
34103;BME280;20381;54.498;18.206;2022-11-24T07:04:14;99163.52;;;-0.58;98.52
34103;BME280;20381;54.498;18.206;2022-11-24T07:06:42;99172.42;;;-0.54;98.15
34103;BME280;20381;54.498;18.206;2022-11-24T07:09:11;99162.16;;;-0.52;97.84
34103;BME280;20381;54.498;18.206;2022-11-24T07:11:39;99169.45;;;-0.53;97.45
34103;BME280;20381;54.498;18.206;2022-11-24T07:14:06;99169.45;;;-0.56;97.44
34103;BME280;20381;54.498;18.206;2022-11-24T07:16:33;99171.28;;;-0.68;97.62
34103;BME280;20381;54.498;18.206;2022-11-24T07:19:00;99181.58;;;-0.71;97.61
34103;BME280;20381;54.498;18.206;2022-11-24T07:21:27;99185.05;;;-0.75;97.65
34103;BME280;20381;54.498;18.206;2022-11-24T07:23:56;99194.46;;;-0.75;97.70
34103;BME280;20381;54.498;18.206;2022-11-24T07:26:24;99186.36;;;-0.78;97.60
34103;BME280;20381;54.498;18.206;2022-11-24T07:28:51;99188.96;;;-0.81;97.64
34103;BME280;20381;54.498;18.206;2022-11-24T07:31:20;99190.24;;;-0.81;97.62
34103;BME280;20381;54.498;18.206;2022-11-24T07:33:50;99192.09;;;-0.95;98.07
34103;BME280;20381;54.498;18.206;2022-11-24T07:36:18;99186.09;;;-0.94;98.21
34103;BME280;20381;54.498;18.206;2022-11-24T07:38:46;99193.69;;;-0.85;98.49
34103;BME280;20381;54.498;18.206;2022-11-24T07:41:14;99192.77;;;-0.78;98.67
34103;BME280;20381;54.498;18.206;2022-11-24T07:43:41;99187.44;;;-0.58;98.43
34103;BME280;20381;54.498;18.206;2022-11-24T07:46:11;99188.97;;;-0.43;97.85
34103;BME280;20381;54.498;18.206;2022-11-24T07:48:39;99191.13;;;-0.44;97.26
34103;BME280;20381;54.498;18.206;2022-11-24T07:51:09;99181.24;;;-0.40;97.31
34103;BME280;20381;54.498;18.206;2022-11-24T07:53:36;99174.06;;;-0.48;97.42
34103;BME280;20381;54.498;18.206;2022-11-24T07:56:04;99181.39;;;-0.52;97.60
34103;BME280;20381;54.498;18.206;2022-11-24T07:58:34;99186.45;;;-0.44;97.67
34103;BME280;20381;54.498;18.206;2022-11-24T08:01:15;99177.75;;;-0.33;97.63
34103;BME280;20381;54.498;18.206;2022-11-24T08:03:44;99176.83;;;-0.29;97.83
34103;BME280;20381;54.498;18.206;2022-11-24T08:06:12;99189.54;;;-0.18;97.89
34103;BME280;20381;54.498;18.206;2022-11-24T08:08:39;99182.23;;;-0.15;97.67
34103;BME280;20381;54.498;18.206;2022-11-24T08:11:09;99180.91;;;-0.12;97.68
34103;BME280;20381;54.498;18.206;2022-11-24T08:13:37;99192.90;;;-0.13;97.68
34103;BME280;20381;54.498;18.206;2022-11-24T08:16:07;99192.55;;;-0.20;98.08
34103;BME280;20381;54.498;18.206;2022-11-24T08:18:36;99189.58;;;-0.21;97.75
34103;BME280;20381;54.498;18.206;2022-11-24T08:21:04;99191.18;;;-0.12;97.62
34103;BME280;20381;54.498;18.206;2022-11-24T08:23:32;99188.30;;;-0.23;98.14
34103;BME280;20381;54.498;18.206;2022-11-24T08:26:09;99186.84;;;-0.09;97.93
34103;BME280;20381;54.498;18.206;2022-11-24T08:28:39;99184.10;;;0.05;97.58
34103;BME280;20381;54.498;18.206;2022-11-24T08:31:09;99178.13;;;0.06;97.46
34103;BME280;20381;54.498;18.206;2022-11-24T08:33:37;99182.81;;;0.07;97.46
34103;BME280;20381;54.498;18.206;2022-11-24T08:36:06;99177.19;;;0.12;97.33
34103;BME280;20381;54.498;18.206;2022-11-24T08:38:34;99173.30;;;0.13;97.10
34103;BME280;20381;54.498;18.206;2022-11-24T08:41:04;99175.47;;;0.12;97.20
34103;BME280;20381;54.498;18.206;2022-11-24T08:43:33;99174.49;;;0.19;97.34
34103;BME280;20381;54.498;18.206;2022-11-24T08:46:05;99174.48;;;0.23;97.30
34103;BME280;20381;54.498;18.206;2022-11-24T08:48:35;99185.50;;;0.28;97.24
34103;BME280;20381;54.498;18.206;2022-11-24T08:51:05;99195.83;;;0.25;97.12
34103;BME280;20381;54.498;18.206;2022-11-24T08:53:33;99195.73;;;0.31;97.13
34103;BME280;20381;54.498;18.206;2022-11-24T08:56:00;99206.53;;;0.26;96.93
34103;BME280;20381;54.498;18.206;2022-11-24T08:58:28;99206.53;;;0.26;97.13
34103;BME280;20381;54.498;18.206;2022-11-24T09:03:40;99220.17;;;0.28;97.24
34103;BME280;20381;54.498;18.206;2022-11-24T09:06:10;99223.09;;;0.35;97.34
34103;BME280;20381;54.498;18.206;2022-11-24T09:08:44;99226.25;;;0.52;97.14
34103;BME280;20381;54.498;18.206;2022-11-24T09:11:12;99220.23;;;0.53;97.19
34103;BME280;20381;54.498;18.206;2022-11-24T09:13:41;99219.19;;;0.66;97.07
34103;BME280;20381;54.498;18.206;2022-11-24T09:16:13;99218.28;;;0.71;96.46
34103;BME280;20381;54.498;18.206;2022-11-24T09:18:42;99217.45;;;0.69;96.27
34103;BME280;20381;54.498;18.206;2022-11-24T09:21:14;99226.95;;;0.63;96.44
34103;BME280;20381;54.498;18.206;2022-11-24T09:23:46;99220.17;;;0.59;96.14
34103;BME280;20381;54.498;18.206;2022-11-24T09:26:39;99215.19;;;0.47;96.15
34103;BME280;20381;54.498;18.206;2022-11-24T09:29:06;99211.77;;;0.48;96.30
34103;BME280;20381;54.498;18.206;2022-11-24T09:31:36;99219.94;;;0.44;96.42
34103;BME280;20381;54.498;18.206;2022-11-24T09:34:06;99218.05;;;0.59;96.38
34103;BME280;20381;54.498;18.206;2022-11-24T09:36:34;99216.77;;;0.57;96.49
34103;BME280;20381;54.498;18.206;2022-11-24T09:39:01;99224.42;;;0.60;96.50
34103;BME280;20381;54.498;18.206;2022-11-24T09:44:50;99225.38;;;0.53;95.58
34103;BME280;20381;54.498;18.206;2022-11-24T09:50:34;99223.27;;;0.23;96.73
34103;BME280;20381;54.498;18.206;2022-11-24T09:56:22;99214.55;;;0.33;97.08
34103;BME280;20381;54.498;18.206;2022-11-24T09:58:59;99211.48;;;0.36;97.03
34103;BME280;20381;54.498;18.206;2022-11-24T10:01:35;99205.06;;;0.38;97.02
34103;BME280;20381;54.498;18.206;2022-11-24T10:04:20;99205.89;;;0.40;97.06
34103;BME280;20381;54.498;18.206;2022-11-24T10:13:06;99204.17;;;0.39;96.81
34103;BME280;20381;54.498;18.206;2022-11-24T10:15:46;99215.57;;;0.19;96.46
34103;BME280;20381;54.498;18.206;2022-11-24T10:21:15;99224.94;;;-0.08;96.55
34103;BME280;20381;54.498;18.206;2022-11-24T10:26:39;99223.86;;;-0.27;96.74
34103;BME280;20381;54.498;18.206;2022-11-24T10:29:20;99225.94;;;-0.21;97.22
34103;BME280;20381;54.498;18.206;2022-11-24T10:34:52;99230.47;;;-0.07;97.64
34103;BME280;20381;54.498;18.206;2022-11-24T10:40:07;99233.59;;;0.16;97.55
34103;BME280;20381;54.498;18.206;2022-11-24T10:42:52;99242.92;;;0.24;97.44
34103;BME280;20381;54.498;18.206;2022-11-24T10:45:21;99237.75;;;0.25;97.15
34103;BME280;20381;54.498;18.206;2022-11-24T10:47:48;99241.23;;;0.23;96.78
34103;BME280;20381;54.498;18.206;2022-11-24T10:53:08;99231.90;;;0.15;96.68
34103;BME280;20381;54.498;18.206;2022-11-24T11:03:54;99224.18;;;0.47;97.05
34103;BME280;20381;54.498;18.206;2022-11-24T11:06:25;99225.42;;;0.50;96.64
34103;BME280;20381;54.498;18.206;2022-11-24T11:11:42;99222.98;;;0.42;96.41
34103;BME280;20381;54.498;18.206;2022-11-24T11:14:10;99222.85;;;0.50;96.74
34103;BME280;20381;54.498;18.206;2022-11-24T11:16:43;99212.52;;;0.56;96.85
34103;BME280;20381;54.498;18.206;2022-11-24T11:19:39;99219.28;;;0.60;96.64
34103;BME280;20381;54.498;18.206;2022-11-24T11:22:46;99223.64;;;0.55;96.37
34103;BME280;20381;54.498;18.206;2022-11-24T11:27:40;99233.45;;;0.29;95.73
34103;BME280;20381;54.498;18.206;2022-11-24T11:30:17;99240.48;;;0.14;95.84
34103;BME280;20381;54.498;18.206;2022-11-24T11:32:54;99241.41;;;0.07;96.20
34103;BME280;20381;54.498;18.206;2022-11-24T11:35:24;99243.18;;;0.02;96.28
34103;BME280;20381;54.498;18.206;2022-11-24T11:37:59;99240.58;;;0.05;96.75
34103;BME280;20381;54.498;18.206;2022-11-24T11:40:31;99234.59;;;0.06;96.72
34103;BME280;20381;54.498;18.206;2022-11-24T11:43:10;99232.88;;;0.05;96.66
34103;BME280;20381;54.498;18.206;2022-11-24T11:45:42;99232.06;;;0.03;96.50
34103;BME280;20381;54.498;18.206;2022-11-24T11:53:59;99229.50;;;0.03;96.64
34103;BME280;20381;54.498;18.206;2022-11-24T11:56:38;99235.52;;;-0.01;96.48
34103;BME280;20381;54.498;18.206;2022-11-24T12:10:44;99228.50;;;0.13;96.79
34103;BME280;20381;54.498;18.206;2022-11-24T12:37:24;99237.45;;;-0.18;97.05
34103;BME280;20381;54.498;18.206;2022-11-24T12:46:25;99251.16;;;-0.19;96.44
34103;BME280;20381;54.498;18.206;2022-11-24T12:54:39;99250.05;;;-0.36;96.37
34103;BME280;20381;54.498;18.206;2022-11-24T12:57:17;99251.81;;;-0.43;96.55
34103;BME280;20381;54.498;18.206;2022-11-24T13:00:28;99257.28;;;-0.33;96.48
34103;BME280;20381;54.498;18.206;2022-11-24T13:03:26;99261.49;;;-0.27;96.47
34103;BME280;20381;54.498;18.206;2022-11-24T13:05:58;99263.51;;;-0.17;96.31
34103;BME280;20381;54.498;18.206;2022-11-24T13:08:39;99266.08;;;-0.16;96.50
34103;BME280;20381;54.498;18.206;2022-11-24T13:14:00;99269.65;;;0.07;96.39
34103;BME280;20381;54.498;18.206;2022-11-24T13:16:30;99274.75;;;0.10;96.20
34103;BME280;20381;54.498;18.206;2022-11-24T13:19:06;99278.98;;;0.14;96.16
34103;BME280;20381;54.498;18.206;2022-11-24T13:24:21;99278.95;;;0.17;96.00
34103;BME280;20381;54.498;18.206;2022-11-24T13:26:53;99276.79;;;0.18;96.04
34103;BME280;20381;54.498;18.206;2022-11-24T13:29:33;99271.16;;;0.24;96.03
34103;BME280;20381;54.498;18.206;2022-11-24T13:37:16;99282.11;;;0.36;95.76
34103;BME280;20381;54.498;18.206;2022-11-24T13:53:40;99283.80;;;0.39;95.17
34103;BME280;20381;54.498;18.206;2022-11-24T14:01:31;99291.79;;;0.17;95.12
34103;BME280;20381;54.498;18.206;2022-11-24T14:12:16;99295.32;;;0.07;95.85
34103;BME280;20381;54.498;18.206;2022-11-24T14:14:55;99300.49;;;0.06;95.73
34103;BME280;20381;54.498;18.206;2022-11-24T14:17:26;99299.65;;;0.04;95.86
34103;BME280;20381;54.498;18.206;2022-11-24T14:19:54;99305.66;;;0.01;96.01
34103;BME280;20381;54.498;18.206;2022-11-24T14:25:00;99305.70;;;-0.04;95.63
34103;BME280;20381;54.498;18.206;2022-11-24T14:27:30;99309.19;;;-0.09;95.49
34103;BME280;20381;54.498;18.206;2022-11-24T14:32:35;99311.05;;;-0.24;95.73
34103;BME280;20381;54.498;18.206;2022-11-24T14:35:32;99306.02;;;-0.34;95.95
34103;BME280;20381;54.498;18.206;2022-11-24T14:38:04;99314.56;;;-0.32;95.81
34103;BME280;20381;54.498;18.206;2022-11-24T14:40:42;99308.65;;;-0.40;96.10
34103;BME280;20381;54.498;18.206;2022-11-24T14:43:33;99314.66;;;-0.41;96.36
34103;BME280;20381;54.498;18.206;2022-11-24T14:51:19;99320.56;;;-0.35;96.38
34103;BME280;20381;54.498;18.206;2022-11-24T14:53:54;99321.41;;;-0.34;96.36
34103;BME280;20381;54.498;18.206;2022-11-24T14:59:16;99327.45;;;-0.40;96.32
34103;BME280;20381;54.498;18.206;2022-11-24T15:01:47;99326.64;;;-0.42;96.29
34103;BME280;20381;54.498;18.206;2022-11-24T15:04:19;99329.20;;;-0.45;96.36
34103;BME280;20381;54.498;18.206;2022-11-24T15:09:56;99323.09;;;-0.32;95.98
34103;BME280;20381;54.498;18.206;2022-11-24T15:12:29;99323.23;;;-0.44;95.87
34103;BME280;20381;54.498;18.206;2022-11-24T15:18:01;99333.98;;;-0.52;96.17
34103;BME280;20381;54.498;18.206;2022-11-24T15:20:43;99334.45;;;-0.56;96.17
34103;BME280;20381;54.498;18.206;2022-11-24T15:23:24;99344.27;;;-0.57;96.18
34103;BME280;20381;54.498;18.206;2022-11-24T15:25:54;99352.42;;;-0.60;96.33
34103;BME280;20381;54.498;18.206;2022-11-24T15:28:24;99350.19;;;-0.47;96.12
34103;BME280;20381;54.498;18.206;2022-11-24T15:31:04;99353.98;;;-0.42;96.00
34103;BME280;20381;54.498;18.206;2022-11-24T15:33:28;99359.14;;;-0.44;96.00
34103;BME280;20381;54.498;18.206;2022-11-24T15:35:56;99360.89;;;-0.48;96.21
34103;BME280;20381;54.498;18.206;2022-11-24T15:38:24;99358.70;;;-0.45;96.28
34103;BME280;20381;54.498;18.206;2022-11-24T15:40:52;99354.41;;;-0.43;96.35
34103;BME280;20381;54.498;18.206;2022-11-24T15:43:39;99353.10;;;-0.40;96.34
34103;BME280;20381;54.498;18.206;2022-11-24T15:46:06;99356.48;;;-0.35;96.42
34103;BME280;20381;54.498;18.206;2022-11-24T15:48:34;99362.37;;;-0.24;96.05
34103;BME280;20381;54.498;18.206;2022-11-24T15:51:02;99364.09;;;-0.26;95.83
34103;BME280;20381;54.498;18.206;2022-11-24T15:53:34;99360.70;;;-0.28;95.80
34103;BME280;20381;54.498;18.206;2022-11-24T15:56:10;99366.68;;;-0.29;96.12
34103;BME280;20381;54.498;18.206;2022-11-24T15:58:35;99370.84;;;-0.15;95.70
34103;BME280;20381;54.498;18.206;2022-11-24T16:01:02;99362.77;;;-0.21;95.74
34103;BME280;20381;54.498;18.206;2022-11-24T16:03:29;99363.24;;;-0.25;96.04